createdAt,value
2022-10-17T00:00:27.137Z,32.50
2022-10-17T00:01:31.130Z,33.38
2022-10-17T00:02:35.106Z,34.63
2022-10-17T00:03:40.318Z,32.63
2022-10-17T00:04:44.281Z,32.87
2022-10-17T00:05:49.911Z,34.60
2022-10-17T00:06:56.032Z,35.63
2022-10-17T00:08:01.696Z,34.06
2022-10-17T00:09:07.282Z,35.53
2022-10-17T00:10:12.377Z,37.27
2022-10-17T00:11:22.132Z,34.13
2022-10-17T00:12:27.919Z,32.25
2022-10-17T00:13:34.675Z,37.19
2022-10-17T00:14:38.695Z,35.07
2022-10-17T00:15:44.456Z,35.81
2022-10-17T00:16:48.390Z,34.87
2022-10-17T00:17:52.251Z,33.93
2022-10-17T00:18:56.697Z,33.44
2022-10-17T00:20:00.872Z,36.75
2022-10-17T00:21:05.043Z,36.38
2022-10-17T00:22:09.034Z,34.47
2022-10-17T00:23:15.602Z,32.25
2022-10-17T00:24:19.462Z,29.63
2022-10-17T00:25:24.762Z,34.50
2022-10-17T00:26:28.977Z,36.20
2022-10-17T00:27:41.083Z,32.75
2022-10-17T00:28:47.356Z,33.88
2022-10-17T00:29:55.332Z,36.13
2022-10-17T00:31:02.181Z,40.50
2022-10-17T00:32:06.292Z,37.80
2022-10-17T00:33:10.247Z,39.13
2022-10-17T00:34:14.245Z,38.19
2022-10-17T00:35:18.341Z,37.94
2022-10-17T00:36:25.005Z,37.47
2022-10-17T00:37:30.749Z,36.56
2022-10-17T00:38:37.089Z,34.94
2022-10-17T00:39:40.950Z,36.00
2022-10-17T00:40:45.007Z,34.81
2022-10-17T00:41:50.501Z,36.44
2022-10-17T00:42:54.439Z,36.80
2022-10-17T00:44:02.577Z,35.47
2022-10-17T00:45:09.472Z,34.60
2022-10-17T00:46:13.697Z,33.31
2022-10-17T00:47:20.612Z,34.13
2022-10-17T00:48:26.092Z,36.44
2022-10-17T00:49:33.007Z,36.25
2022-10-17T00:50:41.909Z,35.88
2022-10-17T00:51:51.537Z,35.19
2022-10-17T00:52:57.859Z,38.40
2022-10-17T00:54:05.686Z,37.13
2022-10-17T00:55:16.142Z,35.13
2022-10-17T00:57:35.587Z,32.67
2022-10-17T00:58:39.826Z,36.50
2022-10-17T00:59:46.209Z,33.94
2022-10-17T01:00:50.272Z,34.13
2022-10-17T01:02:03.963Z,36.63
2022-10-17T01:03:08.203Z,36.63
2022-10-17T01:04:13.210Z,35.47
2022-10-17T01:05:19.922Z,37.06
2022-10-17T01:06:23.923Z,37.00
2022-10-17T01:07:33.209Z,37.88
2022-10-17T01:08:38.180Z,38.50
2022-10-17T01:09:45.517Z,39.13
2022-10-17T01:11:08.745Z,39.88
2022-10-17T01:12:30.927Z,37.63
2022-10-17T01:13:43.753Z,36.38
2022-10-17T01:15:15.592Z,35.38
2022-10-17T01:16:22.575Z,38.06
2022-10-17T01:17:49.198Z,37.63
2022-10-17T01:19:03.418Z,34.31
2022-10-17T01:20:10.446Z,38.07
2022-10-17T01:21:36.667Z,41.53
2022-10-17T01:22:49.436Z,46.53
2022-10-17T01:24:29.410Z,46.44
2022-10-17T01:25:47.889Z,42.07
2022-10-17T01:27:10.050Z,41.13
2022-10-17T01:28:34.836Z,41.19
2022-10-17T01:30:03.546Z,39.40
2022-10-17T01:31:15.830Z,40.44
2022-10-17T01:32:29.377Z,42.13
2022-10-17T01:33:39.565Z,41.47
2022-10-17T01:34:52.507Z,39.81
2022-10-17T01:36:05.625Z,41.37
2022-10-17T01:37:25.722Z,43.31
2022-10-17T01:38:32.605Z,43.81
2022-10-17T01:39:54.656Z,42.25
2022-10-17T01:41:07.425Z,41.88
2022-10-17T01:42:30.567Z,41.27
2022-10-17T01:43:56.042Z,41.94
2022-10-17T01:45:08.911Z,40.69
2022-10-17T01:46:20.001Z,41.13
2022-10-17T01:47:31.625Z,39.88
2022-10-17T01:48:41.273Z,39.31
2022-10-17T01:49:48.204Z,35.63
2022-10-17T01:51:01.086Z,36.13
2022-10-17T01:52:13.726Z,37.94
2022-10-17T01:53:20.637Z,39.81
2022-10-17T01:54:30.087Z,39.00
2022-10-17T01:55:39.296Z,39.38
2022-10-17T01:56:48.608Z,38.81
2022-10-17T01:57:57.131Z,32.25
2022-10-17T01:59:16.042Z,38.13
2022-10-17T02:00:23.799Z,41.19
2022-10-17T02:01:30.554Z,38.38
2022-10-17T02:02:36.588Z,35.50
2022-10-17T02:03:43.461Z,39.69
2022-10-17T02:04:50.303Z,40.13
2022-10-17T02:05:58.220Z,40.88
2022-10-17T02:07:10.682Z,35.75
2022-10-17T02:08:16.621Z,34.94
2022-10-17T02:09:26.351Z,39.50
2022-10-17T02:10:43.580Z,35.19
2022-10-17T02:12:02.152Z,39.19
2022-10-17T02:13:21.003Z,36.81
2022-10-17T02:14:45.297Z,36.94
2022-10-17T02:15:55.319Z,38.93
2022-10-17T02:17:12.637Z,39.53
2022-10-17T02:18:31.483Z,36.31
2022-10-17T03:54:43.185Z,30.87
2022-10-17T03:55:42.805Z,33.00
2022-10-17T03:56:46.933Z,28.31
2022-10-17T03:57:50.882Z,32.06
2022-10-17T03:58:55.811Z,32.75
2022-10-17T03:59:59.671Z,32.75
2022-10-17T04:01:08.233Z,32.63
2022-10-17T04:02:12.265Z,32.13
2022-10-17T04:03:17.395Z,33.87
2022-10-17T04:04:21.762Z,35.56
2022-10-17T04:05:25.689Z,34.38
2022-10-17T04:06:29.620Z,37.44
2022-10-17T04:07:33.559Z,33.69
2022-10-17T04:08:37.426Z,34.94
2022-10-17T04:09:41.386Z,33.31
2022-10-17T04:10:45.355Z,32.27
2022-10-17T04:11:49.215Z,31.47
2022-10-17T04:12:53.151Z,33.53
2022-10-17T04:13:58.144Z,31.31
2022-10-17T04:15:02.039Z,33.81
2022-10-17T04:16:10.689Z,33.13
2022-10-17T04:17:17.201Z,33.20
2022-10-17T04:18:20.165Z,32.81
2022-10-17T04:19:25.652Z,33.38
2022-10-17T04:20:29.597Z,32.81
2022-10-17T04:21:33.465Z,32.88
2022-10-17T04:22:37.391Z,32.56
2022-10-17T04:23:41.263Z,33.13
2022-10-17T04:24:46.835Z,31.94
2022-10-17T04:25:50.722Z,31.87
2022-10-17T04:26:54.640Z,29.63
2022-10-17T04:27:58.583Z,31.62
2022-10-17T04:29:02.560Z,33.25
2022-10-17T04:30:07.367Z,32.88
2022-10-17T04:31:13.725Z,33.19
2022-10-17T04:32:17.661Z,27.25
2022-10-17T04:33:21.556Z,32.19
2022-10-17T04:34:25.605Z,31.06
2022-10-17T04:35:31.187Z,29.00
2022-10-17T04:36:35.122Z,33.38
2022-10-17T04:37:39.057Z,33.13
2022-10-17T04:38:42.960Z,27.00
2022-10-17T04:39:46.910Z,32.00
2022-10-17T04:40:51.001Z,32.81
2022-10-17T04:41:54.924Z,31.81
2022-10-17T04:43:01.805Z,35.56
2022-10-17T04:44:04.610Z,35.38
2022-10-17T04:45:09.017Z,35.63
2022-10-17T04:46:15.092Z,32.56
2022-10-17T04:47:19.115Z,37.06
2022-10-17T04:48:23.055Z,39.38
2022-10-17T04:49:27.007Z,35.50
2022-10-17T04:50:32.992Z,34.40
2022-10-17T04:51:36.584Z,37.13
2022-10-17T04:52:40.448Z,34.63
2022-10-17T04:53:50.782Z,34.75
2022-10-17T04:54:51.657Z,35.06
2022-10-17T04:55:55.710Z,36.13
2022-10-17T04:56:59.657Z,39.00
2022-10-17T04:58:03.663Z,35.00
2022-10-17T04:59:10.200Z,34.88
2022-10-17T05:00:15.874Z,35.63
2022-10-17T05:02:47.224Z,34.75
2022-10-17T05:03:51.331Z,34.69
2022-10-17T05:04:55.202Z,28.94
2022-10-17T05:06:00.414Z,33.44
2022-10-17T05:07:04.347Z,33.19
2022-10-17T05:08:10.827Z,29.81
2022-10-17T05:09:16.320Z,32.00
2022-10-17T05:10:20.370Z,28.19
2022-10-17T05:11:29.588Z,35.50
2022-10-17T05:12:33.508Z,33.25
2022-10-17T05:13:37.380Z,33.50
2022-10-17T05:14:41.297Z,36.25
2022-10-17T05:15:46.792Z,39.63
2022-10-17T05:16:52.221Z,35.81
2022-10-17T05:18:02.230Z,35.75
2022-10-17T05:19:17.143Z,42.75
2022-10-17T05:20:17.873Z,41.00
2022-10-17T05:21:23.297Z,35.63
2022-10-17T05:22:30.612Z,37.63
2022-10-17T05:23:35.066Z,37.31
2022-10-17T05:24:38.911Z,38.07
2022-10-17T05:25:42.797Z,37.63
2022-10-17T05:26:46.765Z,39.13
2022-10-17T05:27:50.743Z,37.27
2022-10-17T05:28:55.296Z,36.40
2022-10-17T05:29:59.240Z,35.81
2022-10-17T05:31:07.226Z,35.44
2022-10-17T05:32:11.174Z,34.44
2022-10-17T05:33:15.166Z,33.56
2022-10-17T05:34:19.060Z,34.67
2022-10-17T05:35:23.002Z,30.81
2022-10-17T05:36:26.968Z,32.25
2022-10-17T05:37:31.759Z,37.47
2022-10-17T05:38:35.812Z,33.25
2022-10-17T05:39:42.112Z,34.69
2022-10-17T05:44:04.667Z,32.31
2022-10-17T05:45:10.458Z,39.00
2022-10-17T05:46:14.569Z,33.69
2022-10-17T05:47:20.177Z,30.19
2022-10-17T05:48:24.567Z,33.13
2022-10-17T05:49:44.704Z,33.00
2022-10-17T05:52:04.628Z,24.31
2022-10-17T05:53:11.187Z,31.00
2022-10-17T05:54:15.101Z,32.67
2022-10-17T05:55:18.939Z,31.25
2022-10-17T05:56:24.387Z,33.31
2022-10-17T05:57:28.279Z,32.56
2022-10-17T05:58:51.555Z,34.38
2022-10-17T05:59:39.575Z,32.69
2022-10-17T06:01:50.087Z,30.56
2022-10-17T06:02:54.045Z,32.33
2022-10-17T06:03:57.955Z,30.44
2022-10-17T06:05:01.882Z,30.19
2022-10-17T06:06:13.481Z,33.53
2022-10-17T06:07:17.850Z,32.38
2022-10-17T06:08:22.252Z,29.06
2022-10-17T06:09:26.145Z,30.81
2022-10-17T06:10:30.128Z,31.81
2022-10-17T06:12:41.818Z,31.19
2022-10-17T06:13:12.719Z,31.37
2022-10-17T06:13:49.463Z,32.06
2022-10-17T06:14:53.309Z,28.94
2022-10-17T06:15:57.346Z,32.25
2022-10-17T06:17:01.316Z,28.12
2022-10-17T06:18:05.303Z,31.00
2022-10-17T06:19:10.295Z,31.87
2022-10-17T06:20:15.889Z,27.13
2022-10-17T06:21:25.189Z,30.19
2022-10-17T06:22:29.224Z,31.87
2022-10-17T06:23:33.620Z,27.69
2022-10-17T06:24:39.076Z,28.25
2022-10-17T06:25:43.003Z,26.56
2022-10-17T06:26:51.890Z,30.75
2022-10-17T06:27:55.737Z,28.56
2022-10-17T06:28:59.721Z,29.69
2022-10-17T06:30:04.045Z,26.81
2022-10-17T06:31:10.330Z,27.13
2022-10-17T06:32:17.166Z,28.06
2022-10-17T06:33:21.055Z,25.25
2022-10-17T06:34:26.018Z,22.87
2022-10-17T06:35:29.954Z,28.25
2022-10-17T06:36:33.934Z,26.25
2022-10-17T06:37:38.251Z,26.37
2022-10-17T06:38:44.390Z,25.25
2022-10-17T06:39:48.369Z,27.37
2022-10-17T06:40:52.654Z,24.07
2022-10-17T06:41:56.590Z,26.75
2022-10-17T06:43:00.540Z,18.87
2022-10-17T06:44:04.554Z,24.56
2022-10-17T06:45:12.379Z,25.88
2022-10-17T06:46:18.748Z,24.44
2022-10-17T06:47:22.738Z,26.50
2022-10-17T06:48:29.685Z,26.56
2022-10-17T06:49:32.390Z,24.00
2022-10-17T06:50:36.369Z,25.62
2022-10-17T06:51:40.390Z,24.37
2022-10-17T06:52:44.260Z,24.75
2022-10-17T06:53:48.123Z,26.81
2022-10-17T06:54:54.302Z,24.44
2022-10-17T06:55:58.457Z,26.25
2022-10-17T06:57:02.513Z,26.53
2022-10-17T06:58:06.390Z,23.81
2022-10-17T06:59:10.928Z,25.44
2022-10-17T07:00:15.028Z,18.87
2022-10-17T07:01:18.996Z,23.75
2022-10-17T07:02:23.929Z,21.13
2022-10-17T07:03:29.918Z,22.44
2022-10-17T07:04:33.876Z,20.56
2022-10-17T07:05:37.747Z,23.19
2022-10-17T07:06:41.870Z,19.56
2022-10-17T07:07:47.519Z,20.19
2022-10-17T07:08:51.971Z,18.31
2022-10-17T07:09:56.998Z,20.44
2022-10-17T07:11:11.634Z,20.37
2022-10-17T07:12:15.517Z,21.75
2022-10-17T07:13:20.519Z,21.19
2022-10-17T07:14:24.460Z,21.87
2022-10-17T07:15:28.313Z,23.50
2022-10-17T07:16:32.306Z,24.37
2022-10-17T07:17:36.382Z,24.19
2022-10-17T07:18:41.311Z,22.75
2022-10-17T07:19:45.432Z,20.27
2022-10-17T07:20:55.796Z,23.31
2022-10-17T07:22:01.890Z,16.94
2022-10-17T07:23:06.047Z,21.81
2022-10-17T07:24:09.913Z,22.25
2022-10-17T07:25:16.176Z,21.19
2022-10-17T07:26:20.679Z,24.56
2022-10-17T07:27:24.716Z,24.12
2022-10-17T07:28:31.004Z,25.88
2022-10-17T07:29:35.104Z,26.56
2022-10-17T07:30:39.043Z,28.56
2022-10-17T07:31:44.542Z,26.00
2022-10-17T07:32:48.779Z,24.12
2022-10-17T07:33:52.676Z,27.75
2022-10-17T07:34:56.601Z,30.31
2022-10-17T07:36:01.806Z,31.93
2022-10-17T07:37:05.749Z,28.12
2022-10-17T07:38:09.774Z,34.38
2022-10-17T07:39:13.703Z,34.63
2022-10-17T07:40:19.442Z,33.69
2022-10-17T07:41:23.320Z,33.31
2022-10-17T07:42:27.451Z,35.06
2022-10-17T07:43:31.709Z,30.94
2022-10-17T07:44:35.634Z,32.63
2022-10-17T07:45:41.061Z,36.38
2022-10-17T07:46:44.986Z,34.56
2022-10-17T07:47:48.992Z,35.88
2022-10-17T07:48:52.958Z,32.94
2022-10-17T07:49:58.895Z,32.94
2022-10-17T07:51:07.401Z,34.69
2022-10-17T07:52:12.591Z,33.44
2022-10-17T07:53:20.037Z,34.88
2022-10-17T07:54:28.528Z,33.50
2022-10-17T07:55:32.608Z,33.56
2022-10-17T07:56:37.141Z,33.94
2022-10-17T07:57:42.730Z,34.75
2022-10-17T07:58:51.291Z,38.63
2022-10-17T07:59:53.840Z,40.31
2022-10-17T08:02:06.699Z,43.94
2022-10-17T08:03:13.890Z,43.75
2022-10-17T08:04:17.787Z,43.13
2022-10-17T08:05:24.932Z,42.50
2022-10-17T08:06:28.912Z,41.06
2022-10-17T08:07:32.880Z,42.88
2022-10-17T08:08:36.778Z,41.19
2022-10-17T08:09:40.634Z,40.06
2022-10-17T08:10:46.656Z,35.00
2022-10-17T08:11:53.310Z,32.50
2022-10-17T08:12:58.676Z,34.81
2022-10-17T08:14:02.595Z,33.00
2022-10-17T08:15:08.033Z,32.69
2022-10-17T08:16:14.052Z,33.56
2022-10-17T08:17:20.538Z,31.44
2022-10-17T08:18:26.748Z,32.44
2022-10-17T08:19:30.797Z,28.67
2022-10-17T08:20:37.053Z,23.00
2022-10-17T08:21:40.931Z,23.31
2022-10-17T08:22:46.358Z,28.50
2022-10-17T08:23:50.303Z,28.56
2022-10-17T08:24:54.293Z,27.87
2022-10-17T08:26:00.600Z,27.87
2022-10-17T08:27:06.068Z,24.19
2022-10-17T08:28:11.584Z,23.12
2022-10-17T08:44:26.105Z,13.00
2022-10-17T08:45:48.138Z,17.25
2022-10-17T08:46:57.817Z,13.25
2022-10-17T08:48:06.890Z,18.25
2022-10-17T08:49:15.786Z,15.94
2022-10-17T08:50:30.012Z,21.62
2022-10-17T08:51:36.894Z,18.56
2022-10-17T08:52:46.995Z,19.19
2022-10-17T08:54:14.560Z,19.06
2022-10-17T08:55:42.752Z,19.31
2022-10-17T08:56:52.209Z,19.44
2022-10-17T08:57:56.353Z,20.25
2022-10-17T08:59:00.328Z,20.12
2022-10-17T09:00:06.538Z,18.81
2022-10-17T09:01:31.531Z,17.44
2022-10-17T09:02:52.000Z,21.62
2022-10-17T09:04:13.853Z,19.81
2022-10-17T09:05:35.626Z,16.56
2022-10-17T09:06:51.432Z,19.06
2022-10-17T09:08:03.844Z,15.38
2022-10-17T09:09:27.245Z,17.50
2022-10-17T09:10:53.823Z,13.44
2022-10-17T09:12:00.969Z,14.81
2022-10-17T09:14:51.481Z,16.56
2022-10-17T09:16:21.614Z,15.19
2022-10-17T09:18:07.898Z,14.94
2022-10-17T09:19:20.616Z,20.88
2022-10-17T09:20:27.672Z,15.56
2022-10-17T09:21:47.950Z,24.20
2022-10-17T09:23:05.790Z,13.38
2022-10-17T09:24:20.069Z,16.25
2022-10-17T09:25:25.551Z,17.81
2022-10-17T09:26:33.385Z,17.31
2022-10-17T09:28:27.366Z,16.00
2022-10-17T09:29:25.039Z,17.12
2022-10-17T09:30:45.277Z,15.88
2022-10-17T09:31:51.863Z,17.75
2022-10-17T09:32:57.076Z,18.62
2022-10-17T09:34:03.205Z,23.56
2022-10-17T09:35:12.669Z,23.94
2022-10-17T09:36:31.103Z,20.31
2022-10-17T09:37:35.135Z,21.06
2022-10-17T09:38:44.767Z,22.50
2022-10-17T09:39:51.329Z,21.94
2022-10-17T09:40:58.346Z,21.50
2022-10-17T09:42:03.157Z,19.19
2022-10-17T09:43:09.627Z,20.50
2022-10-17T09:44:22.741Z,22.19
2022-10-17T09:45:28.104Z,19.31
2022-10-17T09:46:37.733Z,21.87
2022-10-17T09:47:59.609Z,24.25
2022-10-17T09:49:17.203Z,17.31
2022-10-17T09:50:31.227Z,22.87
2022-10-17T09:51:37.658Z,20.62
2022-10-17T09:52:49.179Z,19.37
2022-10-17T09:53:56.210Z,16.75
2022-10-17T09:55:10.162Z,14.13
2022-10-17T09:56:18.300Z,23.00
2022-10-17T09:57:28.208Z,21.44
2022-10-17T09:58:50.965Z,22.31
2022-10-17T10:00:03.255Z,19.50
2022-10-17T10:01:22.957Z,23.06
2022-10-17T10:02:26.597Z,22.69
2022-10-17T10:03:30.649Z,24.12
2022-10-17T10:04:47.077Z,20.19
2022-10-17T10:05:43.734Z,26.44
2022-10-17T10:07:05.283Z,19.87
2022-10-17T10:08:15.391Z,18.56
2022-10-17T10:09:23.703Z,27.81
2022-10-17T10:10:30.628Z,23.44
2022-10-17T10:11:52.479Z,24.44
2022-10-17T10:13:06.723Z,22.62
2022-10-17T10:14:22.036Z,23.19
2022-10-17T10:15:39.131Z,18.00
2022-10-17T10:16:45.565Z,18.12
2022-10-17T10:17:49.499Z,15.94
2022-10-17T10:18:55.054Z,15.44
2022-10-17T10:19:59.403Z,17.06
2022-10-17T10:21:19.333Z,15.00
2022-10-17T10:22:26.665Z,15.25
2022-10-17T10:23:30.655Z,19.31
2022-10-17T10:24:36.402Z,18.44
2022-10-17T10:25:59.590Z,16.25
2022-10-17T10:27:05.146Z,19.12
2022-10-17T10:28:12.372Z,14.31
2022-10-17T10:29:40.383Z,17.06
2022-10-17T10:30:48.701Z,15.44
2022-10-17T10:31:54.659Z,15.81
2022-10-17T10:33:00.617Z,14.93
2022-10-17T10:34:13.201Z,16.81
2022-10-17T10:37:10.479Z,14.81
2022-10-17T10:56:53.627Z,13.88
2022-10-17T10:58:00.743Z,13.19
2022-10-17T10:59:08.937Z,16.87
2022-10-17T11:00:19.487Z,17.19
2022-10-17T11:01:42.831Z,17.94
2022-10-17T11:03:10.556Z,16.19
2022-10-17T11:04:21.089Z,17.50
2022-10-17T11:05:44.080Z,18.44
2022-10-17T11:06:50.760Z,18.56
2022-10-17T11:08:00.608Z,17.94
2022-10-17T11:09:39.345Z,16.75
2022-10-17T11:11:06.756Z,12.19
2022-10-17T11:12:28.873Z,19.62
2022-10-17T11:15:45.366Z,16.19
2022-10-17T11:16:58.385Z,16.94
2022-10-17T11:18:12.305Z,16.44
2022-10-17T11:19:49.609Z,14.06
2022-10-17T11:20:58.954Z,16.19
2022-10-17T11:22:22.912Z,18.06
2022-10-17T11:23:50.236Z,15.75
2022-10-17T11:25:17.641Z,17.44
2022-10-17T11:26:26.134Z,16.56
2022-10-17T11:27:31.153Z,14.56
2022-10-17T11:28:37.796Z,14.31
2022-10-17T11:29:45.720Z,30.06
2022-10-17T11:30:58.576Z,25.69
2022-10-17T11:32:06.668Z,19.25
2022-10-17T11:33:13.681Z,21.37
2022-10-17T11:34:26.606Z,23.31
2022-10-17T11:35:44.357Z,21.75
2022-10-17T11:36:53.021Z,20.75
2022-10-17T11:38:05.829Z,19.25
2022-10-17T11:39:16.075Z,18.12
2022-10-17T11:40:34.463Z,17.37
2022-10-17T11:41:58.855Z,20.81
2022-10-17T11:43:17.524Z,15.75
2022-10-17T11:44:33.599Z,14.63
2022-10-17T11:45:43.287Z,13.00
2022-10-17T11:46:50.266Z,18.31
2022-10-17T11:48:05.706Z,14.87
2022-10-17T11:49:20.064Z,25.37
2022-10-17T11:53:02.733Z,30.56
2022-10-17T11:53:58.059Z,25.88
2022-10-17T11:55:07.929Z,20.37
2022-10-17T11:56:14.956Z,19.19
2022-10-17T11:57:41.125Z,21.62
2022-10-17T11:58:48.210Z,21.81
2022-10-17T11:59:59.307Z,22.50
2022-10-17T12:01:24.595Z,21.06
2022-10-17T12:02:56.192Z,20.75
2022-10-17T12:04:28.401Z,18.62
2022-10-17T12:05:50.746Z,16.75
2022-10-17T12:07:04.145Z,16.37
2022-10-17T12:08:31.289Z,16.44
2022-10-17T12:09:31.399Z,16.44
2022-10-17T12:11:03.926Z,17.00
2022-10-17T12:12:08.428Z,12.88
2022-10-17T12:13:39.569Z,16.56
2022-10-17T12:16:24.601Z,19.69
2022-10-17T12:17:36.371Z,21.69
2022-10-17T12:18:40.404Z,18.69
2022-10-17T12:20:23.432Z,19.62
2022-10-17T12:21:31.273Z,21.31
2022-10-17T12:22:34.416Z,17.19
2022-10-17T12:23:40.060Z,17.50
2022-10-17T12:24:46.477Z,16.81
2022-10-17T12:25:58.264Z,13.94
2022-10-17T12:27:25.473Z,14.31
2022-10-17T12:28:32.019Z,13.44
2022-10-17T12:29:37.612Z,12.37
2022-10-17T12:31:03.141Z,12.69
2022-10-17T12:32:14.101Z,11.50
2022-10-17T12:33:21.042Z,12.75
2022-10-17T12:34:26.406Z,11.56
2022-10-17T12:35:32.845Z,11.56
2022-10-17T12:36:38.892Z,15.44
2022-10-17T12:37:51.257Z,15.38
2022-10-17T12:39:07.798Z,7.75
2022-10-17T12:40:41.475Z,15.38
2022-10-17T12:41:50.204Z,13.81
2022-10-17T12:42:57.231Z,17.62
2022-10-17T12:44:01.198Z,15.88
2022-10-17T12:45:09.772Z,22.87
2022-10-17T13:06:33.610Z,14.69
2022-10-17T13:07:40.593Z,16.00
2022-10-17T13:08:54.511Z,16.94
2022-10-17T13:09:59.877Z,14.38
2022-10-17T13:11:05.520Z,16.00
2022-10-17T13:12:15.626Z,12.75
2022-10-17T13:13:25.443Z,13.38
2022-10-17T13:14:34.755Z,10.13
2022-10-17T13:15:40.416Z,11.94
2022-10-17T13:16:59.339Z,14.13
2022-10-17T13:18:09.080Z,20.25
2022-10-17T13:19:16.939Z,17.06
2022-10-17T13:20:25.494Z,12.25
2022-10-17T13:22:51.687Z,8.69
2022-10-17T13:27:31.642Z,18.00
2022-10-17T13:28:39.185Z,11.88
2022-10-17T13:29:44.236Z,14.94
2022-10-17T13:30:49.797Z,15.00
2022-10-17T13:32:02.721Z,16.25
2022-10-17T13:33:12.166Z,16.81
2022-10-17T13:34:25.835Z,18.87
2022-10-17T13:36:43.599Z,16.56
2022-10-17T13:37:53.836Z,15.31
2022-10-17T13:38:57.715Z,12.88
2022-10-17T13:40:11.377Z,12.75
2022-10-17T13:41:34.202Z,12.56
2022-10-17T13:42:33.286Z,13.00
2022-10-17T13:43:37.523Z,12.81
2022-10-17T13:44:43.567Z,11.63
2022-10-17T13:45:53.326Z,11.56
2022-10-17T13:46:57.408Z,9.31
2022-10-17T13:48:04.335Z,13.88
2022-10-17T13:49:17.322Z,12.19
2022-10-17T13:50:51.407Z,9.25
2022-10-17T13:51:44.841Z,5.69
2022-10-17T13:52:50.821Z,10.19
2022-10-17T13:53:54.870Z,10.94
2022-10-17T13:55:16.847Z,10.38
2022-10-17T13:56:29.915Z,8.75
2022-10-17T13:57:32.401Z,8.31
2022-10-17T13:58:54.879Z,9.94
2022-10-17T14:00:07.043Z,12.06
2022-10-17T14:01:11.285Z,11.19
2022-10-17T14:02:18.376Z,8.69
2022-10-17T14:03:32.572Z,9.38
2022-10-17T14:04:56.612Z,8.94
2022-10-17T14:06:01.054Z,10.50
2022-10-17T14:07:06.736Z,10.38
2022-10-17T14:08:31.147Z,12.37
2022-10-17T14:09:29.509Z,11.75
2022-10-17T14:10:38.250Z,28.87
2022-10-17T14:11:44.641Z,10.69
2022-10-17T14:12:51.035Z,11.88
2022-10-17T14:14:03.554Z,10.06
2022-10-17T14:15:18.883Z,9.31
2022-10-17T14:16:24.011Z,11.94
2022-10-17T14:17:29.012Z,11.31
2022-10-17T14:18:36.594Z,9.94
2022-10-17T14:20:06.526Z,14.13
2022-10-17T14:22:29.032Z,12.25
2022-10-17T14:23:40.853Z,11.67
2022-10-17T14:24:45.227Z,11.56
2022-10-17T14:25:49.140Z,15.38
2022-10-17T14:26:58.368Z,17.94
2022-10-17T14:28:14.343Z,12.00
2022-10-17T14:29:30.193Z,9.88
2022-10-17T14:30:56.911Z,9.81
2022-10-17T14:31:42.789Z,11.25
2022-10-17T14:32:46.740Z,14.31
2022-10-17T14:33:53.403Z,14.44
2022-10-17T14:35:17.858Z,12.19
2022-10-17T14:36:05.618Z,12.44
2022-10-17T14:37:17.252Z,12.75
2022-10-17T14:38:22.046Z,14.94
2022-10-17T14:39:28.281Z,14.19
2022-10-17T14:40:34.778Z,16.19
2022-10-17T14:41:46.066Z,15.19
2022-10-17T14:42:53.130Z,13.62
2022-10-17T14:44:01.879Z,15.50
2022-10-17T14:45:13.657Z,16.25
2022-10-17T14:46:19.681Z,15.50
2022-10-17T14:47:43.981Z,13.38
2022-10-17T14:48:33.032Z,17.37
2022-10-17T14:49:39.636Z,17.06
2022-10-17T14:51:04.298Z,16.62
2022-10-17T14:52:19.577Z,13.94
2022-10-17T14:53:23.441Z,15.31
2022-10-17T14:54:28.330Z,17.19
2022-10-17T14:55:34.859Z,18.81
2022-10-17T14:56:41.808Z,15.56
2022-10-17T14:57:48.647Z,16.00
2022-10-17T14:58:54.331Z,16.94
2022-10-17T14:59:58.781Z,20.06
2022-10-17T15:01:11.211Z,21.19
2022-10-17T15:03:05.819Z,21.81
2022-10-17T15:03:27.812Z,19.81
2022-10-17T15:04:44.420Z,20.12
2022-10-17T15:05:40.721Z,19.00
2022-10-17T15:06:47.869Z,19.12
2022-10-17T15:07:51.888Z,21.50
2022-10-17T15:08:57.280Z,22.00
2022-10-17T15:10:17.449Z,21.37
2022-10-17T15:11:13.210Z,18.06
2022-10-17T15:12:25.581Z,21.31
2022-10-17T15:13:32.278Z,21.69
2022-10-17T15:14:35.286Z,20.62
2022-10-17T15:15:41.103Z,24.37
2022-10-17T15:16:45.261Z,18.31
2022-10-17T15:17:49.238Z,24.81
2022-10-17T15:18:54.208Z,21.50
2022-10-17T15:19:58.872Z,17.56
2022-10-17T15:21:05.488Z,23.00
2022-10-17T15:22:10.147Z,20.06
2022-10-17T15:23:15.378Z,19.40
2022-10-17T15:24:19.313Z,23.87
2022-10-17T15:25:25.192Z,22.00
2022-10-17T15:26:31.749Z,30.44
2022-10-17T15:27:36.061Z,36.00
2022-10-17T15:28:41.930Z,33.00
2022-10-17T15:29:45.985Z,34.94
2022-10-17T15:30:52.305Z,33.06
2022-10-17T15:31:56.353Z,35.88
2022-10-17T15:33:03.372Z,32.81
2022-10-17T15:34:08.591Z,33.13
2022-10-17T15:35:12.635Z,33.81
2022-10-17T15:36:35.053Z,34.50
2022-10-17T15:37:39.061Z,31.81
2022-10-17T15:38:45.924Z,31.06
2022-10-17T15:39:52.431Z,34.81
2022-10-17T15:40:59.528Z,33.69
2022-10-17T15:42:09.190Z,36.00
2022-10-17T15:43:19.927Z,33.25
2022-10-17T15:44:27.293Z,35.69
2022-10-17T15:45:34.457Z,35.19
2022-10-17T15:46:40.830Z,32.38
2022-10-17T15:47:49.647Z,37.88
2022-10-17T15:48:55.519Z,36.19
2022-10-17T15:50:00.803Z,39.81
2022-10-17T15:53:55.038Z,42.06
2022-10-17T16:27:11.717Z,28.94
2022-10-17T16:28:10.717Z,16.12
2022-10-17T16:29:16.423Z,24.44
2022-10-17T16:31:28.948Z,24.63
2022-10-17T16:32:33.366Z,20.37
2022-10-17T16:33:37.487Z,20.88
2022-10-17T16:34:42.934Z,18.87
2022-10-17T16:35:46.817Z,22.19
2022-10-17T16:36:50.787Z,16.19
2022-10-17T16:37:55.576Z,23.25
2022-10-17T16:39:02.093Z,27.25
2022-10-17T16:40:06.321Z,20.62
2022-10-17T16:41:34.220Z,19.69
2022-10-17T16:42:40.483Z,23.25
2022-10-17T16:43:44.095Z,23.62
2022-10-17T16:44:48.814Z,24.81
2022-10-17T16:45:53.715Z,16.94
2022-10-17T16:46:59.194Z,17.62
2022-10-17T16:49:17.124Z,19.62
2022-10-17T16:52:53.262Z,21.50
2022-10-17T16:53:57.332Z,18.25
2022-10-17T16:55:01.663Z,21.94
2022-10-17T16:56:07.850Z,17.62
2022-10-17T16:57:12.379Z,16.37
2022-10-17T16:58:18.040Z,19.50
2022-10-17T16:59:24.511Z,18.87
2022-10-17T17:00:31.052Z,19.62
2022-10-17T17:01:35.137Z,17.06
2022-10-17T17:08:12.840Z,20.56
2022-10-17T17:09:18.352Z,21.31
2022-10-17T17:10:22.833Z,23.75
2022-10-17T17:11:28.492Z,28.19
2022-10-17T17:12:35.751Z,24.69
2022-10-17T17:13:40.467Z,22.50
2022-10-17T17:14:46.064Z,22.19
2022-10-17T17:15:50.327Z,23.50
2022-10-17T17:16:54.518Z,21.94
2022-10-17T17:18:02.630Z,20.81
2022-10-17T17:19:07.055Z,21.31
2022-10-17T17:20:11.264Z,15.31
2022-10-17T17:21:15.627Z,22.31
2022-10-17T17:22:19.557Z,20.37
2022-10-17T17:23:23.463Z,20.50
2022-10-17T17:24:29.097Z,22.53
2022-10-17T17:28:19.688Z,22.94
2022-10-17T17:30:23.428Z,22.19
2022-10-17T17:30:47.722Z,21.37
2022-10-17T17:31:53.969Z,22.94
2022-10-17T17:32:57.893Z,24.06
2022-10-17T17:34:03.483Z,25.37
2022-10-17T17:35:12.395Z,20.62
2022-10-17T17:36:21.515Z,23.62
2022-10-17T17:37:25.223Z,23.94
2022-10-17T17:38:32.226Z,23.06
2022-10-17T17:39:36.218Z,26.50
2022-10-17T17:40:50.610Z,21.62
2022-10-17T17:41:53.173Z,24.12
2022-10-17T17:43:11.117Z,25.37
2022-10-17T17:44:10.121Z,30.19
2022-10-17T17:45:13.182Z,25.44
2022-10-17T17:46:19.471Z,26.75
2022-10-17T17:47:23.393Z,26.31
2022-10-17T17:48:27.340Z,25.50
2022-10-17T17:49:32.781Z,24.94
2022-10-17T17:50:42.397Z,26.25
2022-10-17T17:51:51.459Z,24.80
2022-10-17T17:52:54.081Z,23.94
2022-10-17T17:53:59.924Z,22.94
2022-10-17T17:55:07.885Z,25.00
2022-10-17T17:56:14.649Z,20.88
2022-10-17T17:57:18.562Z,23.25
2022-10-17T17:58:22.512Z,20.94
2022-10-17T17:59:31.460Z,23.12
2022-10-17T18:00:36.287Z,23.94
2022-10-17T18:01:43.018Z,22.25
2022-10-17T18:02:51.228Z,24.19
2022-10-17T18:04:09.307Z,24.06
2022-10-17T18:05:17.833Z,24.37
2022-10-17T18:06:33.065Z,25.37
2022-10-17T18:07:49.743Z,26.19
2022-10-17T18:09:04.287Z,24.25
2022-10-17T18:09:59.917Z,20.50
2022-10-17T18:11:04.139Z,27.25
2022-10-17T18:12:08.069Z,25.50
2022-10-17T18:13:13.606Z,29.33
2022-10-17T18:14:19.263Z,27.94
2022-10-17T18:15:31.904Z,29.50
2022-10-17T18:16:33.748Z,27.62
2022-10-17T18:17:37.978Z,27.13
2022-10-17T18:18:44.347Z,29.81
2022-10-17T18:19:51.482Z,25.12
2022-10-17T18:21:23.882Z,26.20
2022-10-17T18:22:10.623Z,28.94
2022-10-17T18:23:14.780Z,26.56
2022-10-17T18:24:21.584Z,26.94
2022-10-17T18:25:32.673Z,24.44
2022-10-17T18:26:35.821Z,30.94